Time;durP1;ratioP1;P1;durP2;ratioP2;P2;SDS_P1;SDS_P2;PMS_P1;PMS_P2;Temp;Humidity;BMP_temperature;BMP_pressure;BME280_temperature;BME280_humidity;BME280_pressure;Samples;Min_cycle;Max_cycle;Signal;HPM_P1;HPM_P2
2022/12/15 00:41:03;;;;;;;;;;;;;;;;;;4996523;28;6929;-73
2022/12/15 00:43:31;;;;;;;;;;;;;;;;;;4978838;28;8328;-73
2022/12/15 00:48:41;;;;;;;;;;;;;;;;;;4996674;28;6789;-73
2022/12/15 00:51:07;;;;;;;;;;;;;;;;;;4995549;28;7135;-73
2022/12/15 01:21:08;;;;;;;;;;;;;;;;;;4995738;28;6785;-64
2022/12/15 01:23:34;;;;;;;;;;;;;;;;;;4998501;28;7128;-64
2022/12/15 01:26:00;;;;;;;;;;;;;;;;;;5000303;28;7035;-64
2022/12/15 01:28:37;;;;;;;;;;;;;;;;;;5000140;28;7226;-64
2022/12/15 01:31:08;;;;;;;;;;;;;;;;;;4999023;28;7432;-64
2022/12/15 01:36:37;;;;;;;;;;;;;;;;;;4999062;28;6677;-64
2022/12/15 01:39:02;;;;;;;;;;;;;;;;;;5000402;28;7221;-64
2022/12/15 01:41:28;;;;;;;;;;;;;;;;;;4999673;28;7430;-64
2022/12/15 01:44:13;;;;;;;;;;;;;;;;;;4999437;28;7199;-64
2022/12/15 01:46:39;;;;;;;;;;;;;;;;;;4999453;28;7123;-64
2022/12/15 01:49:19;;;;;;;;;;;;;;;;;;4998871;28;7032;-64
2022/12/15 01:51:54;;;;;;;;;;;;;;;;;;4999049;28;7513;-64
2022/12/15 01:54:35;;;;;;;;;;;;;;;;;;4999321;28;7415;-64
2022/12/15 01:57:06;;;;;;;;;;;;;;;;;;5000310;28;7251;-64
2022/12/15 02:00:07;;;;;;;;;;;;;;;;;;4998505;28;7013;-64
2022/12/15 02:02:35;;;;;;;;;;;;;;;;;;4999029;28;7429;-64
2022/12/15 02:05:02;;;;;;;;;;;;;;;;;;4995346;28;7166;-73
2022/12/15 02:10:28;;;;;;;;;;;;;;;;;;4998901;28;6909;-73
2022/12/15 02:12:59;;;;;;;;;;;;;;;;;;4999214;28;7364;-73
2022/12/15 02:15:37;;;;;;;;;;;;;;;;;;4999586;28;7083;-73
2022/12/15 02:18:35;;;;;;;;;;;;;;;;;;4999043;28;6876;-73
2022/12/15 02:21:02;;;;;;;;;;;;;;;;;;4938234;29;6968;-73
2022/12/15 02:23:46;;;;;;;;;;;;;;;;;;4938703;29;7180;-73
2022/12/15 02:26:28;;;;;;;;;;;;;;;;;;4938357;29;7197;-73
2022/12/15 02:28:59;;;;;;;;;;;;;;;;;;4938299;29;7168;-73
2022/12/15 02:31:49;;;;;;;;;;;;;;;;;;4938520;29;7074;-73
2022/12/15 02:34:17;;;;;;;;;;;;;;;;;;4937820;29;7361;-73
2022/12/15 02:36:47;;;;;;;;;;;;;;;;;;4938542;29;6935;-73
2022/12/15 02:39:13;;;;;;;;;;;;;;;;;;4938095;29;7209;-73
2022/12/15 02:41:44;;;;;;;;;;;;;;;;;;4938813;29;7155;-73
2022/12/15 02:44:22;;;;;;;;;;;;;;;;;;4938394;29;7102;-73
2022/12/15 02:46:47;;;;;;;;;;;;;;;;;;4938004;29;7567;-73
2022/12/15 02:49:31;;;;;;;;;;;;;;;;;;4939057;29;7030;-73
2022/12/15 02:55:04;;;;;;;;;;;;;;;;;;4938337;29;6804;-73
2022/12/15 02:57:33;;;;;;;;;;;;;;;;;;4990307;28;7154;-73
2022/12/15 03:00:07;;;;;;;;;;;;;;;;;;4997742;28;7361;-73
2022/12/15 03:02:36;;;;;;;;;;;;;;;;;;4997825;28;7119;-73
2022/12/15 03:05:03;;;;;;;;;;;;;;;;;;4995658;28;6934;-73
2022/12/15 03:07:38;;;;;;;;;;;;;;;;;;4997524;28;6927;-73
2022/12/15 03:10:05;;;;;;;;;;;;;;;;;;4997567;28;7117;-73
2022/12/15 03:12:37;;;;;;;;;;;;;;;;;;4997052;28;6955;-73
2022/12/15 03:15:03;;;;;;;;;;;;;;;;;;4997943;28;7347;-73
2022/12/15 03:17:42;;;;;;;;;;;;;;;;;;4997136;28;7004;-73
2022/12/15 03:20:08;;;;;;;;;;;;;;;;;;4996883;28;6969;-73
2022/12/15 03:22:49;;;;;;;;;;;;;;;;;;4997017;28;7402;-73
2022/12/15 03:25:15;;;;;;;;;;;;;;;;;;4996272;28;7183;-64
2022/12/15 03:28:00;;;;;;;;;;;;;;;;;;4997217;28;6997;-64
2022/12/15 03:30:26;;;;;;;;;;;;;;;;;;4996880;28;7997;-64
2022/12/15 03:33:02;;;;;;;;;;;;;;;;;;4997373;28;6929;-64
2022/12/15 03:35:28;;;;;;;;;;;;;;;;;;4996770;28;6996;-64
2022/12/15 03:38:00;;;;;;;;;;;;;;;;;;4997311;28;7403;-73
2022/12/15 03:40:25;;;;;;;;;;;;;;;;;;4996678;28;6937;-73
2022/12/15 03:42:51;;;;;;;;;;;;;;;;;;4997003;28;6948;-73
2022/12/15 03:45:25;;;;;;;;;;;;;;;;;;4996036;28;7294;-73
2022/12/15 03:47:53;;;;;;;;;;;;;;;;;;4996688;28;7194;-73
2022/12/15 03:50:24;;;;;;;;;;;;;;;;;;4996085;28;7004;-73
2022/12/15 03:53:02;;;;;;;;;;;;;;;;;;4997327;28;7408;-73
2022/12/15 03:55:30;;;;;;;;;;;;;;;;;;4997086;28;7274;-73
2022/12/15 03:57:56;;;;;;;;;;;;;;;;;;4996822;28;7270;-73
2022/12/15 04:00:25;;;;;;;;;;;;;;;;;;4996235;28;6959;-73
2022/12/15 04:02:54;;;;;;;;;;;;;;;;;;4996373;28;7015;-73
2022/12/15 04:05:25;;;;;;;;;;;;;;;;;;5013083;28;7449;-73
2022/12/15 04:07:59;;;;;;;;;;;;;;;;;;5016941;28;6949;-73
2022/12/15 04:10:25;;;;;;;;;;;;;;;;;;5015914;28;7402;-73
2022/12/15 04:13:09;;;;;;;;;;;;;;;;;;5015779;28;6944;-73
2022/12/15 04:15:37;;;;;;;;;;;;;;;;;;5016695;28;7097;-73
2022/12/15 04:18:04;;;;;;;;;;;;;;;;;;5016934;28;7191;-73
2022/12/15 04:20:30;;;;;;;;;;;;;;;;;;5016416;28;7401;-73
2022/12/15 04:22:56;;;;;;;;;;;;;;;;;;5015677;28;6957;-73
2022/12/15 05:33:21;;;;;;;;;;;;;;;;;;5015126;28;6808;-73
2022/12/15 05:35:47;;;;;;;;;;;;;;;;;;5014874;28;6924;-64
2022/12/15 05:38:22;;;;;;;;;;;;;;;;;;5015010;28;7346;-64
2022/12/15 05:40:47;;;;;;;;;;;;;;;;;;5014365;28;6968;-64
2022/12/15 05:43:13;;;;;;;;;;;;;;;;;;5015518;28;7509;-64
2022/12/15 05:45:39;;;;;;;;;;;;;;;;;;5014550;28;6910;-64
2022/12/15 05:51:09;;;;;;;;;;;;;;;;;;5014170;28;6916;-64
2022/12/15 05:53:39;;;;;;;;;;;;;;;;;;5014569;28;7150;-64
2022/12/15 05:56:09;;;;;;;;;;;;;;;;;;5014584;28;7169;-64
2022/12/15 05:58:43;;;;;;;;;;;;;;;;;;5014546;28;7183;-64
2022/12/15 06:01:13;;;;;;;;;;;;;;;;;;5014470;28;7065;-64
2022/12/15 06:03:40;;;;;;;;;;;;;;;;;;5013359;28;7227;-64
2022/12/15 06:06:07;;;;;;;;;;;;;;;;;;5010638;28;7433;-63
2022/12/15 06:08:34;;;;;;;;;;;;;;;;;;5014768;28;7128;-63
2022/12/15 06:11:02;;;;;;;;;;;;;;;;;;5016932;28;7125;-63
2022/12/15 14:58:23;;;;;;;;;;;;;;;;;;5072270;28;6595;-63
2022/12/15 15:00:52;;;;;;;;;;;;;;;;;;5052060;28;6963;-63
2022/12/15 15:03:24;;;;;;;;;;;;;;;;;;5051936;28;7512;-63
2022/12/15 15:06:24;;;;;;;;;;;;;;;;;;5051861;28;7788;-63
2022/12/15 15:08:51;;;;;;;;;;;;;;;;;;5051903;28;7381;-63
2022/12/15 15:14:29;;;;;;;;;;;;;;;;;;5050302;28;6764;-63
2022/12/15 15:17:03;;;;;;;;;;;;;;;;;;5052069;28;6973;-63
2022/12/15 15:19:38;;;;;;;;;;;;;;;;;;5051470;28;7968;-63
2022/12/15 15:22:03;;;;;;;;;;;;;;;;;;5051391;28;7833;-63
2022/12/15 15:24:33;;;;;;;;;;;;;;;;;;5067030;28;8852;-64
2022/12/15 15:27:19;;;;;;;;;;;;;;;;;;5051697;28;7214;-63
2022/12/15 15:29:45;;;;;;;;;;;;;;;;;;5047477;28;7064;-64
2022/12/15 15:32:17;;;;;;;;;;;;;;;;;;5051828;28;7721;-64
2022/12/15 15:34:50;;;;;;;;;;;;;;;;;;5051698;28;7242;-64
2022/12/15 15:37:22;;;;;;;;;;;;;;;;;;5051201;28;6972;-64
2022/12/15 15:39:49;;;;;;;;;;;;;;;;;;5051481;28;7210;-64
2022/12/15 15:42:15;;;;;;;;;;;;;;;;;;5051292;28;7393;-72
2022/12/15 15:44:41;;;;;;;;;;;;;;;;;;5051789;28;7237;-72
2022/12/15 15:50:11;;;;;;;;;;;;;;;;;;5051016;28;6960;-72
2022/12/15 15:53:02;;;;;;;;;;;;;;;;;;5051355;28;6940;-73
2022/12/15 15:55:31;;;;;;;;;;;;;;;;;;5051153;28;7754;-72
2022/12/15 15:57:57;;;;;;;;;;;;;;;;;;5066060;28;7422;-64
2022/12/15 16:00:24;;;;;;;;;;;;;;;;;;5070915;28;7079;-64
2022/12/15 16:02:50;;;;;;;;;;;;;;;;;;5070860;28;6840;-63
2022/12/15 16:05:16;;;;;;;;;;;;;;;;;;5071449;28;7137;-64
2022/12/15 16:07:43;;;;;;;;;;;;;;;;;;5068585;28;6964;-64
2022/12/15 16:10:14;;;;;;;;;;;;;;;;;;5057229;28;7201;-64
2022/12/15 16:12:50;;;;;;;;;;;;;;;;;;5057342;28;7152;-64
2022/12/15 16:15:17;;;;;;;;;;;;;;;;;;5057471;28;7175;-64
2022/12/15 16:17:46;;;;;;;;;;;;;;;;;;5057103;28;6980;-64
2022/12/15 16:20:13;;;;;;;;;;;;;;;;;;5057234;28;7172;-63
2022/12/15 16:22:47;;;;;;;;;;;;;;;;;;5057213;28;7029;-64
2022/12/15 16:25:25;;;;;;;;;;;;;;;;;;5057220;28;7263;-63
2022/12/15 16:27:50;;;;;;;;;;;;;;;;;;5056976;28;7109;-63
2022/12/15 16:30:18;;;;;;;;;;;;;;;;;;5057125;28;7162;-64
2022/12/15 16:32:44;;;;;;;;;;;;;;;;;;5057040;28;7010;-63
2022/12/15 16:35:11;;;;;;;;;;;;;;;;;;5056781;28;7672;-63
2022/12/15 16:37:37;;;;;;;;;;;;;;;;;;5057014;28;7300;-64
2022/12/15 16:40:12;;;;;;;;;;;;;;;;;;5056964;28;8366;-64
2022/12/15 16:42:38;;;;;;;;;;;;;;;;;;5056811;28;7068;-64
2022/12/15 16:48:44;;;;;;;;;;;;;;;;;;5055307;28;6685;-64
2022/12/15 16:54:21;;;;;;;;;;;;;;;;;;5057021;28;6796;-63
2022/12/15 16:57:01;;;;;;;;;;;;;;;;;;5056358;28;6959;-63
2022/12/15 16:59:26;;;;;;;;;;;;;;;;;;5057008;28;8148;-64
2022/12/15 17:08:00;;;;;;;;;;;;;;;;;;5056064;28;6919;-64
2022/12/15 17:13:40;;;;;;;;;;;;;;;;;;5056057;28;6716;-64
2022/12/15 17:16:06;;;;;;;;;;;;;;;;;;5055946;28;7043;-63
2022/12/15 17:18:59;;;;;;;;;;;;;;;;;;5055550;28;7168;-64
2022/12/15 17:21:31;;;;;;;;;;;;;;;;;;5054954;28;7403;-63
2022/12/15 17:24:00;;;;;;;;;;;;;;;;;;5038976;28;8356;-63
2022/12/15 17:26:28;;;;;;;;;;;;;;;;;;5055261;28;7161;-64
2022/12/15 17:28:59;;;;;;;;;;;;;;;;;;5055591;28;6993;-63
2022/12/15 17:31:25;;;;;;;;;;;;;;;;;;5055709;28;7412;-64
2022/12/15 17:33:52;;;;;;;;;;;;;;;;;;5055624;28;7145;-64
2022/12/15 17:36:32;;;;;;;;;;;;;;;;;;5055862;28;6919;-63
2022/12/15 17:38:59;;;;;;;;;;;;;;;;;;5055177;28;6975;-64
2022/12/15 17:41:26;;;;;;;;;;;;;;;;;;5055394;28;7136;-64
2022/12/15 17:43:52;;;;;;;;;;;;;;;;;;5055875;28;7132;-64
2022/12/15 17:46:17;;;;;;;;;;;;;;;;;;5055530;28;7061;-64
2022/12/15 17:48:44;;;;;;;;;;;;;;;;;;5055714;28;6933;-64
2022/12/15 17:51:14;;;;;;;;;;;;;;;;;;5055348;28;7410;-64
2022/12/15 17:53:42;;;;;;;;;;;;;;;;;;5055552;28;7235;-64
2022/12/15 17:56:10;;;;;;;;;;;;;;;;;;5055345;28;6943;-63
2022/12/15 17:58:36;;;;;;;;;;;;;;;;;;5035962;28;7419;-64
2022/12/15 18:01:01;;;;;;;;;;;;;;;;;;5035509;28;6952;-63
2022/12/15 18:03:27;;;;;;;;;;;;;;;;;;5035544;28;7068;-64
2022/12/15 18:05:53;;;;;;;;;;;;;;;;;;5035335;28;7159;-64
2022/12/15 18:08:27;;;;;;;;;;;;;;;;;;5035411;28;7105;-63
2022/12/15 18:10:55;;;;;;;;;;;;;;;;;;5035254;28;7137;-63
2022/12/15 18:13:22;;;;;;;;;;;;;;;;;;5035325;28;6817;-64
2022/12/15 18:15:48;;;;;;;;;;;;;;;;;;5035222;28;6838;-63
2022/12/15 18:18:16;;;;;;;;;;;;;;;;;;5035373;28;7002;-64
2022/12/15 18:20:42;;;;;;;;;;;;;;;;;;5034914;28;7172;-64
2022/12/15 18:23:20;;;;;;;;;;;;;;;;;;5035152;28;7023;-64
2022/12/15 18:25:46;;;;;;;;;;;;;;;;;;5035131;28;7308;-64
2022/12/15 18:28:29;;;;;;;;;;;;;;;;;;5035054;28;6824;-64
2022/12/15 18:30:59;;;;;;;;;;;;;;;;;;5034930;28;7095;-63
2022/12/15 18:33:28;;;;;;;;;;;;;;;;;;5034968;28;6842;-64
2022/12/15 18:35:55;;;;;;;;;;;;;;;;;;5034997;28;7193;-64
2022/12/15 18:38:24;;;;;;;;;;;;;;;;;;5034929;28;6947;-64
2022/12/15 18:40:52;;;;;;;;;;;;;;;;;;5034824;28;7188;-64
2022/12/15 18:43:23;;;;;;;;;;;;;;;;;;5034773;28;6936;-63
2022/12/15 18:45:49;;;;;;;;;;;;;;;;;;5034861;28;6975;-64
2022/12/15 18:48:20;;;;;;;;;;;;;;;;;;5034793;28;7457;-63
2022/12/15 18:50:47;;;;;;;;;;;;;;;;;;5034832;28;6953;-63
2022/12/15 18:53:16;;;;;;;;;;;;;;;;;;5034808;28;7002;-63
2022/12/15 18:55:42;;;;;;;;;;;;;;;;;;5034372;28;6959;-64
2022/12/15 18:58:35;;;;;;;;;;;;;;;;;;5050787;28;6995;-64
2022/12/15 19:01:01;;;;;;;;;;;;;;;;;;5051562;28;7141;-64
2022/12/15 19:03:28;;;;;;;;;;;;;;;;;;5054390;28;7206;-64
2022/12/15 19:06:01;;;;;;;;;;;;;;;;;;5054699;28;7374;-63
2022/12/15 19:08:30;;;;;;;;;;;;;;;;;;5054450;28;6944;-64
2022/12/15 19:10:59;;;;;;;;;;;;;;;;;;5054481;28;7097;-63
2022/12/15 19:13:27;;;;;;;;;;;;;;;;;;5053971;28;8040;-63
2022/12/15 19:15:53;;;;;;;;;;;;;;;;;;5054586;28;6928;-63
2022/12/15 19:27:13;;;;;;;;;;;;;;;;;;5054049;28;7394;-64
2022/12/15 19:29:40;;;;;;;;;;;;;;;;;;5054131;28;7117;-63
2022/12/15 19:32:06;;;;;;;;;;;;;;;;;;5053976;28;7280;-64
2022/12/15 19:34:32;;;;;;;;;;;;;;;;;;5054372;28;7127;-64
2022/12/15 19:37:00;;;;;;;;;;;;;;;;;;5054027;28;7540;-64
2022/12/15 19:39:26;;;;;;;;;;;;;;;;;;5053821;28;7959;-64
2022/12/15 19:41:53;;;;;;;;;;;;;;;;;;5054148;28;7108;-64
2022/12/15 19:44:18;;;;;;;;;;;;;;;;;;5056520;28;6928;-64
2022/12/15 19:46:45;;;;;;;;;;;;;;;;;;5057924;28;6971;-64
2022/12/15 19:49:10;;;;;;;;;;;;;;;;;;5057693;28;7110;-64
2022/12/15 19:51:36;;;;;;;;;;;;;;;;;;5057951;28;7203;-64
2022/12/15 19:54:03;;;;;;;;;;;;;;;;;;5058632;28;6928;-64
2022/12/15 19:56:29;;;;;;;;;;;;;;;;;;5057503;28;7133;-64
2022/12/15 19:58:55;;;;;;;;;;;;;;;;;;5057511;28;7451;-63
2022/12/15 20:01:21;;;;;;;;;;;;;;;;;;5057289;28;7672;-64
2022/12/15 20:03:49;;;;;;;;;;;;;;;;;;5057775;28;6936;-64
2022/12/15 20:06:17;;;;;;;;;;;;;;;;;;5057272;28;7034;-63
2022/12/15 20:08:44;;;;;;;;;;;;;;;;;;5057203;28;7198;-64
2022/12/15 20:11:21;;;;;;;;;;;;;;;;;;5057228;28;7161;-63
2022/12/15 20:13:48;;;;;;;;;;;;;;;;;;5057381;28;7200;-64
2022/12/15 20:16:17;;;;;;;;;;;;;;;;;;5057373;28;6968;-64
2022/12/15 20:18:47;;;;;;;;;;;;;;;;;;5057401;28;7440;-63
2022/12/15 20:21:14;;;;;;;;;;;;;;;;;;5057367;28;6988;-64
2022/12/15 20:23:47;;;;;;;;;;;;;;;;;;5039333;28;7248;-63
2022/12/15 20:26:12;;;;;;;;;;;;;;;;;;5057261;28;7089;-63
2022/12/15 20:28:38;;;;;;;;;;;;;;;;;;5057008;28;6953;-63
2022/12/15 20:31:04;;;;;;;;;;;;;;;;;;5057045;28;8057;-64
2022/12/15 20:33:29;;;;;;;;;;;;;;;;;;5057278;28;7336;-64
2022/12/15 20:35:55;;;;;;;;;;;;;;;;;;5057437;28;7088;-63
2022/12/15 20:38:26;;;;;;;;;;;;;;;;;;5056964;28;7217;-63
2022/12/15 20:40:53;;;;;;;;;;;;;;;;;;5057545;28;7132;-63
2022/12/15 20:43:20;;;;;;;;;;;;;;;;;;5056827;28;7058;-63
2022/12/15 20:45:48;;;;;;;;;;;;;;;;;;5057016;28;6815;-63
2022/12/15 20:48:15;;;;;;;;;;;;;;;;;;5056815;28;7230;-63
2022/12/15 20:50:42;;;;;;;;;;;;;;;;;;5056801;28;7426;-64
2022/12/15 20:53:27;;;;;;;;;;;;;;;;;;5038867;28;8896;-64
2022/12/15 20:55:54;;;;;;;;;;;;;;;;;;5056953;28;7171;-64
2022/12/15 20:58:20;;;;;;;;;;;;;;;;;;5050623;28;6975;-64
2022/12/15 21:00:55;;;;;;;;;;;;;;;;;;5056617;28;7680;-64
2022/12/15 21:03:20;;;;;;;;;;;;;;;;;;5056582;28;7054;-64
2022/12/15 21:05:47;;;;;;;;;;;;;;;;;;5056554;28;7118;-64
2022/12/15 21:08:36;;;;;;;;;;;;;;;;;;5056434;28;7096;-64
2022/12/15 21:11:23;;;;;;;;;;;;;;;;;;5056027;28;7746;-64
2022/12/15 21:13:50;;;;;;;;;;;;;;;;;;5056496;28;7070;-64
2022/12/15 21:16:18;;;;;;;;;;;;;;;;;;5056352;28;7215;-63
2022/12/15 21:18:45;;;;;;;;;;;;;;;;;;5056329;28;7446;-64
2022/12/15 21:21:28;;;;;;;;;;;;;;;;;;5056236;28;7200;-64
2022/12/15 21:23:54;;;;;;;;;;;;;;;;;;5056166;28;7325;-73
2022/12/15 21:26:37;;;;;;;;;;;;;;;;;;5055833;28;7040;-72
2022/12/15 21:29:14;;;;;;;;;;;;;;;;;;5055994;28;7166;-72
2022/12/15 21:31:41;;;;;;;;;;;;;;;;;;5055903;28;7074;-72
2022/12/15 21:34:08;;;;;;;;;;;;;;;;;;5055908;28;7070;-72
2022/12/15 21:36:36;;;;;;;;;;;;;;;;;;5055802;28;7125;-72
2022/12/15 21:39:14;;;;;;;;;;;;;;;;;;5055750;28;6956;-72
2022/12/15 21:41:42;;;;;;;;;;;;;;;;;;5055881;28;6896;-73
2022/12/15 21:44:14;;;;;;;;;;;;;;;;;;5055684;28;7574;-72
2022/12/15 21:46:39;;;;;;;;;;;;;;;;;;5055818;28;6939;-73
2022/12/15 21:49:17;;;;;;;;;;;;;;;;;;5055524;28;7238;-64
2022/12/15 21:51:46;;;;;;;;;;;;;;;;;;5055539;28;6931;-64
2022/12/15 21:54:47;;;;;;;;;;;;;;;;;;5038354;28;8499;-64
2022/12/15 21:57:13;;;;;;;;;;;;;;;;;;5055070;28;7092;-64
2022/12/15 21:59:39;;;;;;;;;;;;;;;;;;5055500;28;6950;-64
2022/12/15 22:02:22;;;;;;;;;;;;;;;;;;5055305;28;7275;-64
2022/12/15 22:04:48;;;;;;;;;;;;;;;;;;5055476;28;7123;-64
2022/12/15 22:07:16;;;;;;;;;;;;;;;;;;5054845;28;7095;-64
2022/12/15 22:09:42;;;;;;;;;;;;;;;;;;5055203;28;7391;-64
2022/12/15 22:12:16;;;;;;;;;;;;;;;;;;5055773;28;7116;-64
2022/12/15 22:14:42;;;;;;;;;;;;;;;;;;5055183;28;7119;-64
2022/12/15 22:17:15;;;;;;;;;;;;;;;;;;5055187;28;6987;-64
2022/12/15 22:19:40;;;;;;;;;;;;;;;;;;5055319;28;7145;-64
2022/12/15 22:22:06;;;;;;;;;;;;;;;;;;5055088;28;7147;-64
2022/12/15 22:24:45;;;;;;;;;;;;;;;;;;5055010;28;7184;-64
2022/12/15 22:27:18;;;;;;;;;;;;;;;;;;5054917;28;7319;-64
2022/12/15 22:29:45;;;;;;;;;;;;;;;;;;5054931;28;6927;-64
2022/12/15 22:32:17;;;;;;;;;;;;;;;;;;5054859;28;6924;-64
2022/12/15 22:34:43;;;;;;;;;;;;;;;;;;5055081;28;6817;-64
2022/12/15 22:37:09;;;;;;;;;;;;;;;;;;5054803;28;7092;-64
2022/12/15 22:40:09;;;;;;;;;;;;;;;;;;5054750;28;7120;-64
2022/12/15 22:42:35;;;;;;;;;;;;;;;;;;5054831;28;7340;-64
2022/12/15 22:45:02;;;;;;;;;;;;;;;;;;5054810;28;6940;-64
2022/12/15 22:47:28;;;;;;;;;;;;;;;;;;5054695;28;7276;-64
2022/12/15 22:49:53;;;;;;;;;;;;;;;;;;5054336;28;7167;-64
2022/12/15 22:52:20;;;;;;;;;;;;;;;;;;5054653;28;7322;-64
2022/12/15 22:54:46;;;;;;;;;;;;;;;;;;5037707;28;8467;-64
2022/12/15 22:57:23;;;;;;;;;;;;;;;;;;5053491;28;7387;-64
2022/12/15 22:59:53;;;;;;;;;;;;;;;;;;5054186;28;6968;-64
2022/12/15 23:02:32;;;;;;;;;;;;;;;;;;5054536;28;6976;-64
2022/12/15 23:04:58;;;;;;;;;;;;;;;;;;5054532;28;7461;-64
2022/12/15 23:07:41;;;;;;;;;;;;;;;;;;5054992;28;7379;-73
2022/12/15 23:13:00;;;;;;;;;;;;;;;;;;5054872;28;6904;-72
2022/12/15 23:18:12;;;;;;;;;;;;;;;;;;5055329;28;6796;-73
2022/12/15 23:20:38;;;;;;;;;;;;;;;;;;5058446;28;6931;-72
2022/12/15 23:23:04;;;;;;;;;;;;;;;;;;5058442;28;7087;-73
2022/12/15 23:25:30;;;;;;;;;;;;;;;;;;5058450;28;7174;-73
2022/12/15 23:27:55;;;;;;;;;;;;;;;;;;5058289;28;6876;-65
2022/12/15 23:30:21;;;;;;;;;;;;;;;;;;5058359;28;7380;-64
2022/12/15 23:32:47;;;;;;;;;;;;;;;;;;5058206;28;6950;-73
2022/12/15 23:35:13;;;;;;;;;;;;;;;;;;5059100;28;7116;-73
2022/12/15 23:37:38;;;;;;;;;;;;;;;;;;5058865;28;7091;-73
2022/12/15 23:40:05;;;;;;;;;;;;;;;;;;5058190;28;7378;-73
2022/12/15 23:42:31;;;;;;;;;;;;;;;;;;5058140;28;6975;-73
2022/12/15 23:44:56;;;;;;;;;;;;;;;;;;5059320;28;7358;-73
2022/12/15 23:47:24;;;;;;;;;;;;;;;;;;5057995;28;7067;-73
2022/12/15 23:49:49;;;;;;;;;;;;;;;;;;5058057;28;7130;-73
2022/12/15 23:52:17;;;;;;;;;;;;;;;;;;5057967;28;7108;-73
2022/12/15 23:54:43;;;;;;;;;;;;;;;;;;5058026;28;7161;-73
